Time;durP1;ratioP1;P1;durP2;ratioP2;P2;SDS_P1;SDS_P2;PMS_P1;PMS_P2;Temp;Humidity;BMP_temperature;BMP_pressure;BME280_temperature;BME280_humidity;BME280_pressure;Samples;Min_cycle;Max_cycle;Signal;HPM_P1;HPM_P2
2022/04/16 00:00:38;;;;;;;13.65;9.82;;;15.30;70.40;;;;;;3897465;30;20129;-63
2022/04/16 00:02:59;;;;;;;11.43;9.80;;;15.30;70.30;;;;;;3896901;30;20059;-63
2022/04/16 00:05:22;;;;;;;12.25;10.05;;;15.30;70.70;;;;;;3889866;30;20065;-64
2022/04/16 00:07:44;;;;;;;10.77;9.27;;;15.30;71.00;;;;;;3892114;30;20107;-64
2022/04/16 00:10:08;;;;;;;17.38;10.65;;;15.30;71.10;;;;;;3895220;30;20533;-66
2022/04/16 00:12:30;;;;;;;14.05;10.32;;;15.30;71.20;;;;;;3893061;30;20659;-63
2022/04/16 00:14:53;;;;;;;17.27;11.05;;;15.30;71.30;;;;;;3884452;30;20057;-64
2022/04/16 00:17:15;;;;;;;13.35;10.02;;;15.30;71.30;;;;;;3897485;30;20069;-63
2022/04/16 00:19:38;;;;;;;14.77;10.43;;;15.30;71.50;;;;;;3897163;30;20135;-64
2022/04/16 00:22:01;;;;;;;19.27;11.15;;;15.30;71.00;;;;;;3897257;30;20049;-63
2022/04/16 00:24:23;;;;;;;14.05;11.25;;;15.30;70.90;;;;;;3896931;30;20067;-64
2022/04/16 00:26:46;;;;;;;15.60;10.50;;;15.30;71.00;;;;;;3882955;30;20065;-64
2022/04/16 00:29:12;;;;;;;14.35;11.60;;;15.30;71.10;;;;;;3882591;30;20057;-64
2022/04/16 00:31:36;;;;;;;17.58;11.05;;;15.30;70.20;;;;;;3882733;30;20137;-64
2022/04/16 00:33:58;;;;;;;17.95;13.10;;;15.30;69.30;;;;;;3889872;30;20138;-65
2022/04/16 00:36:21;;;;;;;15.93;11.85;;;15.30;69.20;;;;;;3898367;30;20053;-64
2022/04/16 00:38:43;;;;;;;14.43;11.63;;;15.20;70.20;;;;;;3899034;30;20057;-64
2022/04/16 00:41:06;;;;;;;14.82;11.50;;;15.20;70.30;;;;;;3900152;30;20136;-64
2022/04/16 00:43:30;;;;;;;14.95;10.48;;;15.20;70.60;;;;;;3899978;30;20053;-63
2022/04/16 00:45:53;;;;;;;17.65;11.75;;;15.20;71.10;;;;;;3899697;30;21638;-64
2022/04/16 00:48:17;;;;;;;16.25;11.35;;;15.20;71.50;;;;;;3899333;30;20118;-64
2022/04/16 00:50:40;;;;;;;16.67;10.63;;;15.20;71.80;;;;;;3899489;30;20065;-63
2022/04/16 00:53:03;;;;;;;15.80;10.98;;;15.20;72.00;;;;;;3899346;30;20103;-63
2022/04/16 00:55:25;;;;;;;16.08;11.43;;;15.20;72.00;;;;;;3900055;30;20065;-63
2022/04/16 00:57:48;;;;;;;17.25;12.68;;;15.20;72.20;;;;;;3886664;30;20116;-64
2022/04/16 01:00:13;;;;;;;17.90;11.65;;;15.20;72.40;;;;;;3899694;30;20060;-64
2022/04/16 01:02:36;;;;;;;15.50;11.77;;;15.20;72.40;;;;;;3899570;30;20060;-63
2022/04/16 01:05:00;;;;;;;14.73;11.57;;;15.20;72.50;;;;;;3899206;30;20056;-63
2022/04/16 01:07:26;;;;;;;18.52;12.63;;;15.20;72.60;;;;;;3899303;30;20133;-64
2022/04/16 01:09:48;;;;;;;15.05;11.38;;;15.20;72.40;;;;;;3898926;30;20501;-64
2022/04/16 01:12:10;;;;;;;15.43;12.27;;;15.10;73.10;;;;;;3899334;30;20053;-62
2022/04/16 01:14:33;;;;;;;16.02;12.48;;;15.20;72.30;;;;;;3899296;30;20434;-64
2022/04/16 01:16:56;;;;;;;14.57;11.93;;;15.20;72.40;;;;;;3892472;30;20100;-64
2022/04/16 01:19:19;;;;;;;16.17;12.07;;;15.20;72.30;;;;;;3887988;30;20057;-64
2022/04/16 01:21:43;;;;;;;17.70;11.90;;;15.20;71.30;;;;;;3899647;30;20053;-64
2022/04/16 01:24:09;;;;;;;17.05;12.25;;;15.20;71.70;;;;;;3899401;30;20134;-63
2022/04/16 01:26:31;;;;;;;16.38;11.65;;;15.20;71.30;;;;;;3899070;30;20060;-64
2022/04/16 01:28:53;;;;;;;19.20;13.18;;;15.20;71.20;;;;;;3899303;30;20464;-63
2022/04/16 01:31:15;;;;;;;15.20;12.13;;;15.20;71.50;;;;;;3899364;30;20401;-63
2022/04/16 01:33:38;;;;;;;17.27;13.30;;;15.20;71.50;;;;;;3899151;30;20403;-65
2022/04/16 01:36:00;;;;;;;17.95;13.75;;;15.10;71.80;;;;;;3899410;30;20498;-63
2022/04/16 01:38:22;;;;;;;20.25;13.90;;;15.10;70.50;;;;;;3898761;30;20084;-63
2022/04/16 01:40:45;;;;;;;20.25;13.57;;;15.10;70.30;;;;;;3898874;30;20068;-64
2022/04/16 01:43:07;;;;;;;17.63;13.68;;;15.10;71.10;;;;;;3899125;30;20057;-63
2022/04/16 01:45:31;;;;;;;20.35;14.88;;;15.10;71.00;;;;;;3898797;30;20053;-63
2022/04/16 01:47:53;;;;;;;22.55;15.77;;;15.10;70.70;;;;;;3898386;30;20634;-64
2022/04/16 01:50:15;;;;;;;22.25;15.10;;;15.10;70.60;;;;;;3898785;30;20065;-63
2022/04/16 01:52:38;;;;;;;21.35;14.85;;;15.00;71.00;;;;;;3898617;30;20061;-63
2022/04/16 01:55:00;;;;;;;20.60;15.48;;;15.00;71.60;;;;;;3898728;30;20057;-63
2022/04/16 01:57:24;;;;;;;17.73;14.20;;;15.00;72.10;;;;;;3898023;30;20125;-63
2022/04/16 01:59:46;;;;;;;19.13;14.55;;;15.00;72.30;;;;;;3898443;30;20135;-63
2022/04/16 02:02:08;;;;;;;19.08;14.35;;;15.00;72.80;;;;;;3899053;30;20060;-63
2022/04/16 02:04:31;;;;;;;16.17;13.82;;;15.00;74.00;;;;;;3898639;30;20053;-63
2022/04/16 02:06:53;;;;;;;20.23;14.27;;;15.00;73.30;;;;;;3898007;30;20104;-64
2022/04/16 02:09:15;;;;;;;16.63;12.32;;;15.00;73.10;;;;;;3898764;30;20068;-63
2022/04/16 02:11:38;;;;;;;18.25;13.85;;;15.00;73.30;;;;;;3898954;30;20060;-63
2022/04/16 02:14:02;;;;;;;18.52;14.30;;;15.00;73.30;;;;;;3898925;30;20136;-63
2022/04/16 02:16:24;;;;;;;18.05;13.73;;;15.00;72.60;;;;;;3898423;30;20091;-64
2022/04/16 02:18:46;;;;;;;17.40;13.85;;;15.00;72.30;;;;;;3885057;30;20091;-63
2022/04/16 02:21:10;;;;;;;19.95;14.55;;;15.00;72.40;;;;;;3898058;30;20063;-64
2022/04/16 02:23:32;;;;;;;19.83;14.82;;;15.00;72.10;;;;;;3896698;30;20053;-64
2022/04/16 02:25:54;;;;;;;19.73;14.38;;;14.90;72.10;;;;;;3897214;30;20068;-63
2022/04/16 02:28:16;;;;;;;18.20;13.77;;;15.00;72.80;;;;;;3912511;30;20056;-63
2022/04/16 02:30:40;;;;;;;21.17;15.20;;;14.90;72.90;;;;;;3912448;30;20064;-64
2022/04/16 02:33:02;;;;;;;19.63;14.77;;;14.90;73.10;;;;;;3883997;30;20113;-64
2022/04/16 02:35:24;;;;;;;22.50;16.33;;;14.90;73.40;;;;;;3884142;30;20452;-64
2022/04/16 02:37:47;;;;;;;18.83;15.15;;;15.00;73.10;;;;;;3890884;30;20057;-64
2022/04/16 02:40:10;;;;;;;20.60;16.23;;;14.90;73.00;;;;;;3898360;30;20072;-67
2022/04/16 02:42:34;;;;;;;24.08;17.23;;;14.90;73.20;;;;;;3897951;30;20061;-67
2022/04/16 02:47:37;;;;;;;25.13;18.13;;;15.00;73.40;;;;;;3897565;30;20517;-67
2022/04/16 02:49:59;;;;;;;21.15;15.43;;;14.90;73.10;;;;;;3897427;30;20067;-67
2022/04/16 02:52:22;;;;;;;23.20;17.10;;;14.90;73.20;;;;;;3897803;30;20057;-67
2022/04/16 02:54:44;;;;;;;22.80;17.20;;;14.90;72.10;;;;;;3885009;30;20149;-67
2022/04/16 02:57:06;;;;;;;30.25;19.00;;;14.90;72.90;;;;;;3897369;30;20079;-67
2022/04/16 02:59:28;;;;;;;30.27;20.70;;;14.90;72.10;;;;;;3896706;30;20577;-67
2022/04/16 03:01:50;;;;;;;25.48;20.23;;;14.90;71.60;;;;;;3897719;30;20057;-67
2022/04/16 03:04:14;;;;;;;27.20;21.02;;;14.90;71.80;;;;;;3897815;30;20127;-67
2022/04/16 03:06:37;;;;;;;27.83;20.17;;;14.80;71.00;;;;;;3897577;30;20057;-67
2022/04/16 03:08:58;;;;;;;30.33;20.92;;;14.90;71.70;;;;;;3897567;30;20143;-67
2022/04/16 03:11:20;;;;;;;26.92;20.17;;;14.80;72.30;;;;;;3897114;30;20060;-67
2022/04/16 03:13:43;;;;;;;29.35;20.05;;;14.80;72.40;;;;;;3898058;30;20754;-67
2022/04/16 03:18:45;;;;;;;28.50;20.35;;;14.80;72.60;;;;;;3897412;30;20064;-67
2022/04/16 03:21:11;;;;;;;27.92;18.38;;;14.80;72.30;;;;;;3896839;30;20057;-67
2022/04/16 03:23:33;;;;;;;25.67;18.02;;;14.80;72.00;;;;;;3897789;30;20065;-67
2022/04/16 03:25:56;;;;;;;26.83;19.80;;;14.80;71.90;;;;;;3897469;30;20045;-67
2022/04/16 03:28:18;;;;;;;27.05;19.30;;;14.80;71.30;;;;;;3897140;30;20118;-67
2022/04/16 03:30:40;;;;;;;28.38;19.95;;;14.80;71.10;;;;;;3896798;30;20570;-67
2022/04/16 03:33:03;;;;;;;28.58;18.92;;;14.80;70.80;;;;;;3874859;30;20127;-67
2022/04/16 03:35:25;;;;;;;31.95;21.40;;;14.80;71.80;;;;;;3896616;30;20569;-67
2022/04/16 03:37:49;;;;;;;32.78;20.80;;;14.70;71.90;;;;;;3897441;30;20510;-67
2022/04/16 03:40:12;;;;;;;29.63;21.60;;;14.70;71.70;;;;;;3897124;30;20076;-67
2022/04/16 03:42:34;;;;;;;31.75;21.60;;;14.70;71.90;;;;;;3897470;30;20490;-67
2022/04/16 03:44:56;;;;;;;32.28;22.83;;;14.70;72.90;;;;;;3897292;30;20053;-67
2022/04/16 03:47:18;;;;;;;32.47;20.98;;;14.70;73.30;;;;;;3884573;30;20168;-68
2022/04/16 03:49:40;;;;;;;34.83;23.45;;;14.70;73.60;;;;;;3897542;30;20057;-67
2022/04/16 03:52:03;;;;;;;31.85;21.88;;;14.70;74.50;;;;;;3897324;30;20548;-68
2022/04/16 04:00:01;;;;;;;33.60;21.33;;;14.70;73.00;;;;;;3897295;30;20303;-68
2022/04/16 04:02:34;;;;;;;31.17;21.17;;;14.70;73.00;;;;;;3897451;30;20064;-67
2022/04/16 04:04:56;;;;;;;29.63;22.08;;;14.70;74.00;;;;;;3897927;30;20115;-67
2022/04/16 04:07:18;;;;;;;29.58;20.98;;;14.80;72.20;;;;;;3897398;30;20056;-67
2022/04/16 04:09:42;;;;;;;28.75;20.75;;;14.70;71.60;;;;;;3882325;30;20061;-67
2022/04/16 04:12:06;;;;;;;32.05;22.10;;;14.70;70.80;;;;;;3885641;30;20077;-67
2022/04/16 04:14:28;;;;;;;28.65;20.48;;;14.70;70.80;;;;;;3890047;30;20052;-67
2022/04/16 04:16:50;;;;;;;29.77;20.02;;;14.80;71.30;;;;;;3899970;30;20052;-67
2022/04/16 04:19:12;;;;;;;29.10;20.30;;;14.70;72.00;;;;;;3900588;30;20049;-67
2022/04/16 04:21:35;;;;;;;27.27;19.45;;;14.70;72.40;;;;;;3899992;30;20061;-67
2022/04/16 04:23:57;;;;;;;26.98;19.50;;;14.70;72.30;;;;;;3899869;30;20125;-67
2022/04/16 04:26:20;;;;;;;26.08;18.23;;;14.70;72.80;;;;;;3900262;30;20057;-67
2022/04/16 04:28:42;;;;;;;25.90;18.20;;;14.70;72.80;;;;;;3899614;30;20059;-67
2022/04/16 04:31:04;;;;;;;23.73;17.73;;;14.70;73.10;;;;;;3900358;30;20057;-67
2022/04/16 04:33:26;;;;;;;21.17;15.55;;;14.70;72.70;;;;;;3900326;30;20053;-67
2022/04/16 04:35:51;;;;;;;23.65;17.80;;;14.70;73.20;;;;;;3885377;30;20523;-67
2022/04/16 04:38:13;;;;;;;21.35;16.25;;;14.70;72.70;;;;;;3885292;30;20069;-67
2022/04/16 04:40:35;;;;;;;23.77;16.73;;;14.70;72.80;;;;;;3884990;30;20069;-67
2022/04/16 04:42:58;;;;;;;22.42;16.20;;;14.70;72.50;;;;;;3896525;30;20072;-67
2022/04/16 04:45:20;;;;;;;23.08;16.35;;;14.70;73.00;;;;;;3899748;30;20140;-67
2022/04/16 04:47:42;;;;;;;23.23;17.17;;;14.70;73.20;;;;;;3899348;30;20144;-67
2022/04/16 04:50:05;;;;;;;23.48;16.45;;;14.70;73.40;;;;;;3899558;30;20144;-68
2022/04/16 04:52:29;;;;;;;24.60;16.00;;;14.70;73.70;;;;;;3899808;30;20164;-67
2022/04/16 04:54:51;;;;;;;24.92;16.25;;;14.70;73.60;;;;;;3899650;30;20061;-68
2022/04/16 04:57:13;;;;;;;24.80;15.35;;;14.70;73.80;;;;;;3898805;30;20148;-67
2022/04/16 04:59:37;;;;;;;24.13;15.45;;;14.70;74.40;;;;;;3899575;30;20071;-71
2022/04/16 05:01:58;;;;;;;23.90;15.93;;;14.70;75.10;;;;;;3898852;30;20512;-69
2022/04/16 05:04:21;;;;;;;23.88;16.65;;;14.80;74.80;;;;;;3899298;30;20060;-69
2022/04/16 05:06:43;;;;;;;24.02;17.10;;;14.80;74.20;;;;;;3898719;30;20072;-68
2022/04/16 05:09:05;;;;;;;23.55;16.60;;;14.80;72.70;;;;;;3898876;30;20064;-69
2022/04/16 05:11:27;;;;;;;25.38;17.55;;;14.80;71.50;;;;;;3899049;30;20057;-69
2022/04/16 05:13:49;;;;;;;26.55;17.30;;;14.80;70.10;;;;;;3899035;30;20517;-69
2022/04/16 05:16:13;;;;;;;25.95;17.20;;;14.80;70.40;;;;;;3899632;30;20421;-69
2022/04/16 05:18:35;;;;;;;25.95;17.55;;;14.80;70.60;;;;;;3899657;30;20057;-70
2022/04/16 05:20:57;;;;;;;21.55;16.48;;;14.80;72.00;;;;;;3899024;30;20134;-69
2022/04/16 05:23:19;;;;;;;23.67;15.75;;;14.80;70.90;;;;;;3897686;30;20068;-70
2022/04/16 05:25:41;;;;;;;20.27;14.88;;;14.70;71.00;;;;;;3899531;30;20072;-69
2022/04/16 05:28:04;;;;;;;28.15;16.35;;;14.80;71.90;;;;;;3899326;30;20107;-69
2022/04/16 05:30:33;;;;;;;24.52;16.15;;;14.70;71.50;;;;;;3899558;30;20060;-70
2022/04/16 05:33:02;;;;;;;23.70;16.67;;;14.70;70.50;;;;;;3899247;30;20402;-70
2022/04/16 05:35:24;;;;;;;25.17;16.85;;;14.70;69.70;;;;;;3898676;30;20056;-68
2022/04/16 05:37:47;;;;;;;24.08;15.63;;;14.70;68.70;;;;;;3899289;30;20143;-70
2022/04/16 05:40:11;;;;;;;23.08;15.55;;;14.70;69.60;;;;;;3899246;30;20049;-70
2022/04/16 05:42:33;;;;;;;22.92;16.77;;;14.60;69.80;;;;;;3898553;30;20417;-69
2022/04/16 05:45:00;;;;;;;24.15;15.13;;;14.60;70.20;;;;;;3898894;30;20128;-70
2022/04/16 05:47:22;;;;;;;24.52;16.05;;;14.60;70.20;;;;;;3898401;30;20068;-69
2022/04/16 05:49:46;;;;;;;23.98;15.68;;;14.60;71.60;;;;;;3898435;30;20060;-70
2022/04/16 05:52:09;;;;;;;22.23;14.95;;;14.60;71.20;;;;;;3894730;30;20061;-70
2022/04/16 05:54:31;;;;;;;22.80;15.27;;;14.60;70.40;;;;;;3907402;30;20055;-70
2022/04/16 05:56:53;;;;;;;23.35;14.98;;;14.60;69.60;;;;;;3901058;30;20518;-69
2022/04/16 05:59:15;;;;;;;19.98;15.57;;;14.60;69.70;;;;;;3896818;30;20763;-70
2022/04/16 06:01:37;;;;;;;22.20;14.52;;;14.60;71.10;;;;;;3894520;30;20549;-70
2022/04/16 06:03:59;;;;;;;21.98;15.10;;;14.60;70.00;;;;;;3896935;30;20083;-69
2022/04/16 06:06:23;;;;;;;21.80;14.50;;;14.70;69.70;;;;;;3898210;30;20053;-70
2022/04/16 06:08:45;;;;;;;20.00;14.13;;;14.70;69.30;;;;;;3898461;30;20049;-70
2022/04/16 06:11:08;;;;;;;23.20;15.18;;;14.70;68.90;;;;;;3897921;30;20053;-69
2022/04/16 06:13:31;;;;;;;22.02;14.00;;;14.60;68.00;;;;;;3898363;30;21572;-70
2022/04/16 06:15:53;;;;;;;21.73;15.50;;;14.60;68.30;;;;;;3898174;30;20063;-70
2022/04/16 06:18:15;;;;;;;23.95;14.93;;;14.70;68.30;;;;;;3898427;30;20082;-70
2022/04/16 06:20:37;;;;;;;23.02;15.75;;;14.70;68.80;;;;;;3898148;30;20140;-70
2022/04/16 06:23:00;;;;;;;20.85;14.23;;;14.70;69.80;;;;;;3889483;30;20053;-70
2022/04/16 06:25:24;;;;;;;20.48;14.18;;;14.70;69.90;;;;;;3898538;30;20061;-70
2022/04/16 06:27:46;;;;;;;20.23;14.43;;;14.80;70.00;;;;;;3898082;30;20084;-70
2022/04/16 06:30:10;;;;;;;22.27;15.48;;;14.80;69.20;;;;;;3898247;30;20045;-70
2022/04/16 06:32:32;;;;;;;19.90;13.45;;;14.90;68.00;;;;;;3898245;30;20134;-70
2022/04/16 06:34:54;;;;;;;19.40;14.10;;;14.90;68.20;;;;;;3897588;30;20132;-70
2022/04/16 06:37:16;;;;;;;21.60;13.63;;;15.00;68.10;;;;;;3897882;30;20158;-70
2022/04/16 06:39:41;;;;;;;21.30;13.18;;;15.00;68.00;;;;;;3897633;30;20111;-70
2022/04/16 06:42:03;;;;;;;20.38;13.95;;;15.10;67.20;;;;;;3897363;30;20441;-69
2022/04/16 06:44:26;;;;;;;19.98;13.75;;;15.10;66.90;;;;;;3884932;30;20072;-70
2022/04/16 06:46:50;;;;;;;18.63;12.90;;;15.20;67.60;;;;;;3897883;30;20766;-70
2022/04/16 06:49:12;;;;;;;19.58;13.13;;;15.20;66.80;;;;;;3898074;30;20053;-70
2022/04/16 06:51:34;;;;;;;20.42;13.18;;;15.20;66.40;;;;;;3898549;30;20061;-70
2022/04/16 06:53:56;;;;;;;18.42;12.35;;;15.20;65.30;;;;;;3881785;30;20081;-70
2022/04/16 06:56:19;;;;;;;17.15;12.48;;;15.20;66.40;;;;;;3884270;30;20081;-70
2022/04/16 06:58:47;;;;;;;20.23;12.98;;;15.30;66.70;;;;;;3894136;30;20064;-70
2022/04/16 07:01:09;;;;;;;23.73;13.15;;;15.30;66.40;;;;;;3892682;30;20452;-69
2022/04/16 07:03:31;;;;;;;17.58;11.43;;;15.40;65.20;;;;;;3894156;30;20482;-69
2022/04/16 07:05:54;;;;;;;16.95;11.38;;;15.40;65.60;;;;;;3890401;30;20045;-70
2022/04/16 07:08:16;;;;;;;16.08;11.23;;;15.40;64.70;;;;;;3891195;30;20060;-70
2022/04/16 07:10:39;;;;;;;15.23;9.50;;;15.40;65.80;;;;;;3892590;30;20443;-70
2022/04/16 07:13:02;;;;;;;16.95;10.68;;;15.50;66.30;;;;;;3892798;30;20064;-70
2022/04/16 07:15:24;;;;;;;15.85;10.02;;;15.50;67.40;;;;;;3891817;30;20414;-70
2022/04/16 07:17:47;;;;;;;14.85;10.27;;;15.50;65.90;;;;;;3897621;30;20131;-70
2022/04/16 07:20:09;;;;;;;15.90;9.02;;;15.50;64.30;;;;;;3897907;30;20053;-70
2022/04/16 07:22:31;;;;;;;14.38;9.98;;;15.50;65.90;;;;;;3894886;30;20057;-70
2022/04/16 07:24:54;;;;;;;13.50;9.27;;;15.60;64.50;;;;;;3888108;30;20072;-70
2022/04/16 07:27:16;;;;;;;15.75;8.63;;;15.60;62.90;;;;;;3894016;30;20057;-70
2022/04/16 07:29:40;;;;;;;12.88;8.95;;;15.60;63.90;;;;;;3894294;30;20122;-70
2022/04/16 07:32:02;;;;;;;12.70;8.75;;;15.70;63.80;;;;;;3892297;30;20351;-70
2022/04/16 07:34:25;;;;;;;11.13;8.18;;;15.70;60.50;;;;;;3880835;30;20060;-70
2022/04/16 07:36:47;;;;;;;12.95;8.63;;;15.70;61.10;;;;;;3894038;30;20064;-70
2022/04/16 07:39:09;;;;;;;10.82;8.15;;;15.70;59.30;;;;;;3893461;30;20064;-70
2022/04/16 07:41:31;;;;;;;13.10;8.65;;;15.70;59.40;;;;;;3896625;30;20422;-70
2022/04/16 07:44:02;;;;;;;9.82;7.80;;;15.80;60.00;;;;;;3896739;30;20060;-70
2022/04/16 07:46:26;;;;;;;12.63;7.47;;;15.80;59.70;;;;;;3899354;30;20061;-70
2022/04/16 07:48:48;;;;;;;11.32;6.82;;;15.80;60.70;;;;;;3887751;30;20057;-70
2022/04/16 07:51:10;;;;;;;8.85;6.68;;;15.80;60.30;;;;;;3900759;30;20114;-70
2022/04/16 07:53:32;;;;;;;9.80;6.28;;;15.80;60.30;;;;;;3900672;30;20111;-70
2022/04/16 07:55:54;;;;;;;10.90;5.85;;;15.90;60.50;;;;;;3900602;30;20063;-70
2022/04/16 07:58:16;;;;;;;7.60;5.55;;;15.90;61.90;;;;;;3900376;30;20393;-70
2022/04/16 08:00:38;;;;;;;7.38;5.03;;;15.90;61.00;;;;;;3900580;30;20444;-69
2022/04/16 08:03:02;;;;;;;10.80;5.32;;;16.00;60.90;;;;;;3899408;30;20109;-70
2022/04/16 08:05:24;;;;;;;8.30;4.90;;;16.00;62.30;;;;;;3900005;30;20162;-70
2022/04/16 08:07:50;;;;;;;4.13;3.55;;;16.00;61.10;;;;;;3900378;30;20051;-70
2022/04/16 08:10:12;;;;;;;6.57;4.63;;;16.10;60.30;;;;;;3899058;30;20056;-69
2022/04/16 08:12:34;;;;;;;4.65;3.83;;;16.10;58.30;;;;;;3899899;30;20053;-70
2022/04/16 08:14:56;;;;;;;4.43;3.80;;;16.10;59.20;;;;;;3900111;30;20142;-70
2022/04/16 08:17:18;;;;;;;6.10;4.22;;;16.10;58.00;;;;;;3899815;30;20496;-70
2022/04/16 08:19:41;;;;;;;4.88;3.80;;;16.10;59.00;;;;;;3899738;30;20076;-70
2022/04/16 08:22:07;;;;;;;6.78;4.20;;;16.10;58.70;;;;;;3900189;30;20068;-69
2022/04/16 08:24:41;;;;;;;4.97;3.65;;;16.10;58.80;;;;;;3900411;30;20560;-70
2022/04/16 08:27:04;;;;;;;4.38;2.90;;;16.10;59.40;;;;;;3899569;30;20049;-70
2022/04/16 08:29:26;;;;;;;4.93;3.60;;;16.20;59.80;;;;;;3886632;30;20181;-70
2022/04/16 08:31:48;;;;;;;3.85;3.38;;;16.20;58.90;;;;;;3885180;30;20470;-71
2022/04/16 08:34:30;;;;;;;6.25;3.17;;;16.30;59.00;;;;;;3885131;30;20053;-70
2022/04/16 08:36:54;;;;;;;3.60;3.15;;;16.30;58.00;;;;;;3885522;30;20062;-70
2022/04/16 08:39:16;;;;;;;3.50;2.88;;;16.30;56.00;;;;;;3886133;30;20058;-69
2022/04/16 08:41:40;;;;;;;3.60;2.50;;;16.30;56.90;;;;;;3886686;30;20069;-70
2022/04/16 08:44:02;;;;;;;3.13;2.83;;;16.30;58.30;;;;;;3899797;30;20061;-71
2022/04/16 08:46:27;;;;;;;4.03;2.72;;;16.30;56.00;;;;;;3900200;30;20096;-70
2022/04/16 08:48:50;;;;;;;2.58;2.38;;;16.40;56.10;;;;;;3899779;30;20144;-71
2022/04/16 08:51:15;;;;;;;2.58;2.30;;;16.40;57.20;;;;;;3900012;30;20112;-70
2022/04/16 08:53:38;;;;;;;4.13;2.30;;;16.40;58.00;;;;;;3900049;30;20434;-70
2022/04/16 08:56:00;;;;;;;1.38;1.27;;;16.40;57.70;;;;;;3897670;30;20182;-71
2022/04/16 08:58:23;;;;;;;1.55;0.82;;;16.40;58.50;;;;;;3897191;30;20472;-71
2022/04/16 09:00:45;;;;;;;1.02;0.90;;;16.40;55.90;;;;;;3899632;30;20061;-70
2022/04/16 09:03:09;;;;;;;0.70;0.70;;;16.50;56.70;;;;;;3899696;30;20049;-71
2022/04/16 09:05:31;;;;;;;1.10;1.00;;;16.40;53.20;;;;;;3899495;30;20087;-70
2022/04/16 09:07:55;;;;;;;0.90;0.47;;;16.40;53.20;;;;;;3899565;30;20065;-70
2022/04/16 09:10:19;;;;;;;1.38;1.00;;;16.50;55.10;;;;;;3899250;30;20115;-70
2022/04/16 09:12:41;;;;;;;1.35;1.25;;;16.50;56.90;;;;;;3899501;30;20084;-70
2022/04/16 09:15:07;;;;;;;0.70;0.70;;;16.50;56.30;;;;;;3899322;30;21499;-70
2022/04/16 09:17:31;;;;;;;0.60;0.60;;;16.50;54.90;;;;;;3897961;30;20161;-69
2022/04/16 09:19:54;;;;;;;3.15;0.90;;;16.60;54.60;;;;;;3893835;30;20135;-70
2022/04/16 09:22:30;;;;;;;0.60;0.60;;;16.60;55.00;;;;;;3913684;30;20114;-70
2022/04/16 09:24:52;;;;;;;1.98;1.00;;;16.60;54.30;;;;;;3913451;30;20049;-70
2022/04/16 09:27:16;;;;;;;1.20;1.10;;;16.60;55.60;;;;;;3902704;30;20060;-70
2022/04/16 09:29:40;;;;;;;3.40;1.23;;;16.60;55.30;;;;;;3898816;30;21233;-71
2022/04/16 09:32:02;;;;;;;3.03;0.95;;;16.70;56.10;;;;;;3886047;30;20464;-71
2022/04/16 09:34:25;;;;;;;1.27;1.17;;;16.70;56.00;;;;;;3889954;30;20061;-70
2022/04/16 09:36:48;;;;;;;1.27;0.75;;;16.70;55.20;;;;;;3884822;30;20132;-70
2022/04/16 09:39:10;;;;;;;1.60;1.08;;;16.70;54.80;;;;;;3871817;30;20053;-70
2022/04/16 09:41:36;;;;;;;0.93;0.88;;;16.70;53.00;;;;;;3884581;30;20152;-70
2022/04/16 09:44:00;;;;;;;1.98;1.00;;;16.80;54.80;;;;;;3884865;30;20482;-70
2022/04/16 09:46:26;;;;;;;1.25;0.90;;;16.80;56.00;;;;;;3884280;30;20566;-70
2022/04/16 09:48:50;;;;;;;1.88;0.80;;;16.80;53.60;;;;;;3884252;30;20088;-70
2022/04/16 09:51:12;;;;;;;1.15;0.98;;;16.80;53.20;;;;;;3884789;30;20124;-70
2022/04/16 09:53:37;;;;;;;2.83;0.95;;;16.90;53.80;;;;;;3892867;30;20074;-70
2022/04/16 09:56:01;;;;;;;0.70;0.70;;;16.90;54.20;;;;;;3898598;30;20494;-70
2022/04/16 09:58:31;;;;;;;3.28;0.80;;;16.90;55.00;;;;;;3898516;30;20513;-70
2022/04/16 10:00:55;;;;;;;1.17;1.08;;;16.90;54.80;;;;;;3898704;30;20050;-65
2022/04/16 10:03:26;;;;;;;3.90;1.35;;;16.90;54.80;;;;;;3897715;30;20794;-64
2022/04/16 10:05:49;;;;;;;1.67;0.80;;;17.00;55.60;;;;;;3884175;30;20421;-64
2022/04/16 10:08:13;;;;;;;1.10;1.00;;;17.00;55.40;;;;;;3883524;30;20465;-64
2022/04/16 10:10:41;;;;;;;1.08;1.02;;;17.00;55.50;;;;;;3884381;30;20579;-70
2022/04/16 10:13:08;;;;;;;1.20;1.10;;;17.10;55.30;;;;;;3897295;30;20540;-69
2022/04/16 10:15:39;;;;;;;0.80;0.80;;;17.10;54.50;;;;;;3890281;30;20060;-69
2022/04/16 10:18:03;;;;;;;1.08;0.95;;;17.10;54.90;;;;;;3892866;30;20069;-68
2022/04/16 10:20:26;;;;;;;3.72;1.10;;;17.10;52.30;;;;;;3898528;30;20594;-70
2022/04/16 10:22:55;;;;;;;3.50;1.08;;;17.10;54.00;;;;;;3898610;30;20057;-70
2022/04/16 10:25:28;;;;;;;1.20;1.05;;;17.20;52.50;;;;;;3870119;30;20062;-70
2022/04/16 10:28:00;;;;;;;1.98;0.90;;;17.20;54.60;;;;;;3895976;30;20482;-69
2022/04/16 10:30:22;;;;;;;0.70;0.70;;;17.20;53.60;;;;;;3898710;30;20065;-70
2022/04/16 10:32:45;;;;;;;1.27;1.05;;;17.20;55.10;;;;;;3898654;30;20505;-70
2022/04/16 10:35:17;;;;;;;1.20;1.10;;;17.20;55.70;;;;;;3898590;30;20121;-70
2022/04/16 10:37:40;;;;;;;1.25;1.15;;;17.20;55.50;;;;;;3898257;30;20068;-70
2022/04/16 10:40:02;;;;;;;2.58;1.35;;;17.20;56.20;;;;;;3898251;30;20057;-70
2022/04/16 10:42:32;;;;;;;1.60;1.48;;;17.20;56.90;;;;;;3898291;30;20080;-70
2022/04/16 10:45:16;;;;;;;1.33;1.20;;;17.20;57.60;;;;;;3897875;30;20064;-70
2022/04/16 10:47:41;;;;;;;2.42;1.30;;;17.20;56.00;;;;;;3898233;30;20085;-69
2022/04/16 10:50:12;;;;;;;1.00;0.90;;;17.30;56.20;;;;;;3898493;30;20532;-70
2022/04/16 10:52:35;;;;;;;2.25;1.25;;;17.30;56.30;;;;;;3898172;30;20068;-70
2022/04/16 10:55:02;;;;;;;2.28;1.25;;;17.30;56.50;;;;;;3884653;30;20059;-69
2022/04/16 10:57:24;;;;;;;4.03;1.23;;;17.30;55.60;;;;;;3898327;30;20482;-67
2022/04/16 10:59:46;;;;;;;1.02;0.65;;;17.30;56.70;;;;;;3898278;30;20067;-70
2022/04/16 11:02:20;;;;;;;1.77;1.67;;;17.30;55.80;;;;;;3884930;30;20080;-70
2022/04/16 11:04:43;;;;;;;1.60;1.08;;;17.30;56.00;;;;;;3898012;30;20135;-69
2022/04/16 11:07:08;;;;;;;0.80;0.80;;;17.30;56.10;;;;;;3897649;30;20572;-70
2022/04/16 11:09:35;;;;;;;1.52;1.42;;;17.30;56.00;;;;;;3897573;30;20049;-71
2022/04/16 11:11:58;;;;;;;0.95;0.90;;;17.30;57.00;;;;;;3897076;30;20056;-70
2022/04/16 11:14:20;;;;;;;1.52;1.42;;;17.30;55.60;;;;;;3897107;30;20060;-72
2022/04/16 11:16:45;;;;;;;1.30;1.20;;;17.30;55.60;;;;;;3897737;30;20654;-70
2022/04/16 11:19:12;;;;;;;1.98;1.10;;;17.30;55.50;;;;;;3896601;30;20131;-71
2022/04/16 11:21:35;;;;;;;1.10;1.00;;;17.30;54.60;;;;;;3897230;30;20056;-72
2022/04/16 11:24:05;;;;;;;1.10;0.98;;;17.30;55.30;;;;;;3897228;30;20418;-71
2022/04/16 11:34:29;;;;;;;1.85;0.88;;;17.40;55.80;;;;;;3890261;30;20053;-71
2022/04/16 11:37:14;;;;;;;2.47;1.13;;;17.40;54.90;;;;;;3898071;30;20621;-70
2022/04/16 11:39:37;;;;;;;0.73;0.73;;;17.40;53.80;;;;;;3897293;30;20160;-72
2022/04/16 11:42:02;;;;;;;2.03;0.93;;;17.40;54.30;;;;;;3897200;30;20505;-66
2022/04/16 11:44:38;;;;;;;0.70;0.70;;;17.40;52.40;;;;;;3897394;30;20382;-70
2022/04/16 11:47:02;;;;;;;1.50;1.00;;;17.40;52.00;;;;;;3897659;30;20060;-73
2022/04/16 11:49:24;;;;;;;2.10;1.20;;;17.50;58.10;;;;;;3897534;30;20112;-70
2022/04/16 11:51:46;;;;;;;1.15;1.00;;;17.60;57.10;;;;;;3896955;30;20057;-70
2022/04/16 11:54:09;;;;;;;0.80;0.60;;;17.60;55.30;;;;;;3897223;30;20055;-61
2022/04/16 11:56:33;;;;;;;1.02;0.93;;;17.60;53.90;;;;;;3897325;30;20193;-63
2022/04/16 11:58:55;;;;;;;0.85;0.85;;;17.70;53.50;;;;;;3897356;30;20180;-68
2022/04/16 12:01:20;;;;;;;0.65;0.60;;;17.70;50.40;;;;;;3897642;30;20056;-68
2022/04/16 12:03:42;;;;;;;1.65;0.90;;;17.70;50.20;;;;;;3897568;30;20064;-71
2022/04/16 12:06:09;;;;;;;0.80;0.80;;;17.70;50.70;;;;;;3897731;30;20081;-70
2022/04/16 12:08:32;;;;;;;1.75;0.85;;;17.70;50.30;;;;;;3897099;30;20057;-71
2022/04/16 12:10:54;;;;;;;1.70;0.98;;;17.70;47.60;;;;;;3897901;30;20129;-70
2022/04/16 12:13:17;;;;;;;0.80;0.80;;;17.70;47.80;;;;;;3897690;30;20060;-70
2022/04/16 12:15:42;;;;;;;0.65;0.65;;;17.70;49.70;;;;;;3897388;30;20088;-70
2022/04/16 12:18:10;;;;;;;0.82;0.73;;;17.70;49.90;;;;;;3897025;30;20056;-71
2022/04/16 12:20:32;;;;;;;6.18;1.08;;;17.70;51.70;;;;;;3896732;30;20059;-70
2022/04/16 12:22:56;;;;;;;1.48;0.80;;;17.70;51.10;;;;;;3897365;30;20437;-70
2022/04/16 12:25:24;;;;;;;1.00;0.90;;;17.70;50.30;;;;;;3899688;30;20164;-71
2022/04/16 12:27:48;;;;;;;1.77;1.13;;;17.70;50.40;;;;;;3899451;30;20387;-71
2022/04/16 12:30:13;;;;;;;2.45;1.05;;;17.70;51.40;;;;;;3897207;30;20083;-71
2022/04/16 12:32:35;;;;;;;1.30;1.05;;;17.70;51.90;;;;;;3885761;30;20061;-71
2022/04/16 12:34:58;;;;;;;1.30;1.02;;;17.70;52.20;;;;;;3899716;30;20053;-71